sensor_id;sensor_type;location;lat;lon;timestamp;P1;durP1;ratioP1;P2;durP2;ratioP2
37339;SDS011;23223;51.006;7.610;2023-09-08T00:01:26;13.57;;;5.82;;
37339;SDS011;23223;51.006;7.610;2023-09-08T00:03:52;7.95;;;5.38;;
37339;SDS011;23223;51.006;7.610;2023-09-08T00:06:17;6.90;;;5.93;;
37339;SDS011;23223;51.006;7.610;2023-09-08T00:08:43;12.43;;;5.20;;
37339;SDS011;23223;51.006;7.610;2023-09-08T00:11:09;5.38;;;4.88;;
37339;SDS011;23223;51.006;7.610;2023-09-08T00:13:34;4.90;;;4.25;;
37339;SDS011;23223;51.006;7.610;2023-09-08T00:16:00;7.57;;;4.30;;
37339;SDS011;23223;51.006;7.610;2023-09-08T00:18:26;8.70;;;4.60;;
37339;SDS011;23223;51.006;7.610;2023-09-08T00:20:51;4.88;;;4.38;;
37339;SDS011;23223;51.006;7.610;2023-09-08T00:23:17;9.98;;;4.95;;
37339;SDS011;23223;51.006;7.610;2023-09-08T00:25:42;4.30;;;3.60;;
37339;SDS011;23223;51.006;7.610;2023-09-08T00:28:08;8.98;;;4.40;;
37339;SDS011;23223;51.006;7.610;2023-09-08T00:30:34;4.80;;;3.92;;
37339;SDS011;23223;51.006;7.610;2023-09-08T00:32:59;7.22;;;4.95;;
37339;SDS011;23223;51.006;7.610;2023-09-08T00:35:25;7.57;;;4.78;;
37339;SDS011;23223;51.006;7.610;2023-09-08T00:37:50;9.95;;;4.25;;
37339;SDS011;23223;51.006;7.610;2023-09-08T00:40:16;8.95;;;4.80;;
37339;SDS011;23223;51.006;7.610;2023-09-08T00:42:42;4.80;;;3.85;;
37339;SDS011;23223;51.006;7.610;2023-09-08T00:45:07;5.22;;;3.95;;
37339;SDS011;23223;51.006;7.610;2023-09-08T00:47:33;7.35;;;4.80;;
37339;SDS011;23223;51.006;7.610;2023-09-08T00:50:01;4.32;;;3.90;;
37339;SDS011;23223;51.006;7.610;2023-09-08T00:52:29;8.95;;;4.75;;
37339;SDS011;23223;51.006;7.610;2023-09-08T00:54:57;4.57;;;3.95;;
37339;SDS011;23223;51.006;7.610;2023-09-08T00:57:24;6.65;;;4.68;;
37339;SDS011;23223;51.006;7.610;2023-09-08T00:59:49;5.75;;;4.30;;
37339;SDS011;23223;51.006;7.610;2023-09-08T01:02:15;7.10;;;3.55;;
37339;SDS011;23223;51.006;7.610;2023-09-08T01:04:41;9.55;;;4.13;;
37339;SDS011;23223;51.006;7.610;2023-09-08T01:07:07;4.20;;;3.20;;
37339;SDS011;23223;51.006;7.610;2023-09-08T01:09:34;9.10;;;4.35;;
37339;SDS011;23223;51.006;7.610;2023-09-08T01:12:02;7.75;;;3.22;;
37339;SDS011;23223;51.006;7.610;2023-09-08T01:14:31;5.82;;;3.80;;
37339;SDS011;23223;51.006;7.610;2023-09-08T01:16:57;10.75;;;3.97;;
37339;SDS011;23223;51.006;7.610;2023-09-08T01:19:22;6.07;;;4.38;;
37339;SDS011;23223;51.006;7.610;2023-09-08T01:25:04;8.52;;;4.47;;
37339;SDS011;23223;51.006;7.610;2023-09-08T01:27:39;4.80;;;4.18;;
37339;SDS011;23223;51.006;7.610;2023-09-08T01:30:10;4.30;;;3.72;;
37339;SDS011;23223;51.006;7.610;2023-09-08T01:32:37;5.63;;;4.53;;
37339;SDS011;23223;51.006;7.610;2023-09-08T01:35:05;7.03;;;4.22;;
37339;SDS011;23223;51.006;7.610;2023-09-08T01:37:32;5.85;;;4.65;;
37339;SDS011;23223;51.006;7.610;2023-09-08T01:39:57;7.05;;;3.90;;
37339;SDS011;23223;51.006;7.610;2023-09-08T01:42:23;6.80;;;4.28;;
37339;SDS011;23223;51.006;7.610;2023-09-08T01:44:48;4.82;;;3.80;;
37339;SDS011;23223;51.006;7.610;2023-09-08T01:47:15;5.95;;;4.60;;
37339;SDS011;23223;51.006;7.610;2023-09-08T01:49:41;5.00;;;3.83;;
37339;SDS011;23223;51.006;7.610;2023-09-08T01:52:07;8.35;;;4.05;;
37339;SDS011;23223;51.006;7.610;2023-09-08T01:54:32;7.22;;;4.72;;
37339;SDS011;23223;51.006;7.610;2023-09-08T01:56:58;7.25;;;4.28;;
37339;SDS011;23223;51.006;7.610;2023-09-08T01:59:24;4.47;;;3.63;;
37339;SDS011;23223;51.006;7.610;2023-09-08T02:01:49;4.70;;;3.60;;
37339;SDS011;23223;51.006;7.610;2023-09-08T02:04:15;5.18;;;4.03;;
37339;SDS011;23223;51.006;7.610;2023-09-08T02:06:40;4.10;;;3.70;;
37339;SDS011;23223;51.006;7.610;2023-09-08T02:09:07;5.75;;;4.28;;
37339;SDS011;23223;51.006;7.610;2023-09-08T02:11:34;6.00;;;4.43;;
37339;SDS011;23223;51.006;7.610;2023-09-08T02:14:00;4.70;;;3.35;;
37339;SDS011;23223;51.006;7.610;2023-09-08T02:16:26;7.57;;;3.28;;
37339;SDS011;23223;51.006;7.610;2023-09-08T02:18:51;8.90;;;3.92;;
37339;SDS011;23223;51.006;7.610;2023-09-08T02:21:17;6.15;;;4.30;;
37339;SDS011;23223;51.006;7.610;2023-09-08T02:23:42;5.35;;;4.13;;
37339;SDS011;23223;51.006;7.610;2023-09-08T02:26:08;4.32;;;3.75;;
37339;SDS011;23223;51.006;7.610;2023-09-08T02:28:33;5.70;;;4.43;;
37339;SDS011;23223;51.006;7.610;2023-09-08T02:30:59;9.95;;;4.18;;
37339;SDS011;23223;51.006;7.610;2023-09-08T02:33:25;5.38;;;4.38;;
37339;SDS011;23223;51.006;7.610;2023-09-08T02:35:50;11.68;;;4.63;;
37339;SDS011;23223;51.006;7.610;2023-09-08T02:38:16;5.70;;;3.42;;
37339;SDS011;23223;51.006;7.610;2023-09-08T02:40:42;3.63;;;3.30;;
37339;SDS011;23223;51.006;7.610;2023-09-08T02:43:08;4.13;;;3.72;;
37339;SDS011;23223;51.006;7.610;2023-09-08T02:45:34;6.63;;;4.38;;
37339;SDS011;23223;51.006;7.610;2023-09-08T02:47:59;5.03;;;3.83;;
37339;SDS011;23223;51.006;7.610;2023-09-08T02:50:25;7.10;;;3.85;;
37339;SDS011;23223;51.006;7.610;2023-09-08T02:52:51;4.22;;;3.63;;
37339;SDS011;23223;51.006;7.610;2023-09-08T02:55:16;5.35;;;3.95;;
37339;SDS011;23223;51.006;7.610;2023-09-08T02:57:42;4.60;;;3.55;;
37339;SDS011;23223;51.006;7.610;2023-09-08T03:00:08;4.45;;;3.30;;
37339;SDS011;23223;51.006;7.610;2023-09-08T03:02:33;8.25;;;3.88;;
37339;SDS011;23223;51.006;7.610;2023-09-08T03:04:59;4.43;;;3.33;;
37339;SDS011;23223;51.006;7.610;2023-09-08T03:07:26;5.88;;;3.90;;
37339;SDS011;23223;51.006;7.610;2023-09-08T03:09:52;3.65;;;3.22;;
37339;SDS011;23223;51.006;7.610;2023-09-08T03:12:18;6.18;;;4.38;;
37339;SDS011;23223;51.006;7.610;2023-09-08T03:14:43;4.70;;;4.22;;
37339;SDS011;23223;51.006;7.610;2023-09-08T03:17:10;3.80;;;3.40;;
37339;SDS011;23223;51.006;7.610;2023-09-08T03:19:36;4.65;;;3.53;;
37339;SDS011;23223;51.006;7.610;2023-09-08T03:22:01;11.68;;;4.30;;
37339;SDS011;23223;51.006;7.610;2023-09-08T03:24:27;7.63;;;4.13;;
37339;SDS011;23223;51.006;7.610;2023-09-08T03:26:53;5.93;;;3.60;;
37339;SDS011;23223;51.006;7.610;2023-09-08T03:29:18;5.78;;;3.50;;
37339;SDS011;23223;51.006;7.610;2023-09-08T03:31:44;9.32;;;4.75;;
37339;SDS011;23223;51.006;7.610;2023-09-08T03:34:10;7.53;;;4.35;;
37339;SDS011;23223;51.006;7.610;2023-09-08T03:36:35;7.47;;;4.10;;
37339;SDS011;23223;51.006;7.610;2023-09-08T03:39:01;5.82;;;3.97;;
37339;SDS011;23223;51.006;7.610;2023-09-08T03:41:28;5.65;;;3.13;;
37339;SDS011;23223;51.006;7.610;2023-09-08T03:43:53;5.60;;;3.40;;
37339;SDS011;23223;51.006;7.610;2023-09-08T03:46:19;6.28;;;3.67;;
37339;SDS011;23223;51.006;7.610;2023-09-08T03:48:45;6.43;;;4.07;;
37339;SDS011;23223;51.006;7.610;2023-09-08T03:51:11;6.07;;;3.72;;
37339;SDS011;23223;51.006;7.610;2023-09-08T03:53:37;6.80;;;3.55;;
37339;SDS011;23223;51.006;7.610;2023-09-08T03:56:02;5.40;;;3.92;;
37339;SDS011;23223;51.006;7.610;2023-09-08T03:58:28;5.65;;;3.80;;
37339;SDS011;23223;51.006;7.610;2023-09-08T04:00:54;9.63;;;4.38;;
37339;SDS011;23223;51.006;7.610;2023-09-08T04:03:19;6.43;;;3.58;;
37339;SDS011;23223;51.006;7.610;2023-09-08T04:05:45;6.50;;;3.90;;
37339;SDS011;23223;51.006;7.610;2023-09-08T04:08:11;4.70;;;3.90;;
37339;SDS011;23223;51.006;7.610;2023-09-08T04:10:36;6.72;;;4.55;;
37339;SDS011;23223;51.006;7.610;2023-09-08T04:13:02;5.70;;;3.58;;
37339;SDS011;23223;51.006;7.610;2023-09-08T04:15:28;5.18;;;3.72;;
37339;SDS011;23223;51.006;7.610;2023-09-08T04:17:53;4.10;;;3.72;;
37339;SDS011;23223;51.006;7.610;2023-09-08T04:20:20;5.22;;;4.25;;
37339;SDS011;23223;51.006;7.610;2023-09-08T04:22:46;5.93;;;4.30;;
37339;SDS011;23223;51.006;7.610;2023-09-08T04:25:12;10.35;;;3.80;;
37339;SDS011;23223;51.006;7.610;2023-09-08T04:27:38;6.78;;;3.88;;
37339;SDS011;23223;51.006;7.610;2023-09-08T04:30:05;6.20;;;3.53;;
37339;SDS011;23223;51.006;7.610;2023-09-08T04:32:31;7.35;;;4.90;;
37339;SDS011;23223;51.006;7.610;2023-09-08T04:34:57;4.13;;;3.63;;
37339;SDS011;23223;51.006;7.610;2023-09-08T04:37:23;7.05;;;3.83;;
37339;SDS011;23223;51.006;7.610;2023-09-08T04:39:48;5.32;;;3.55;;
37339;SDS011;23223;51.006;7.610;2023-09-08T04:42:14;5.47;;;3.55;;
37339;SDS011;23223;51.006;7.610;2023-09-08T04:44:39;3.88;;;3.53;;
37339;SDS011;23223;51.006;7.610;2023-09-08T04:47:05;7.93;;;4.25;;
37339;SDS011;23223;51.006;7.610;2023-09-08T04:49:30;9.70;;;3.78;;
37339;SDS011;23223;51.006;7.610;2023-09-08T04:51:56;7.85;;;3.67;;
37339;SDS011;23223;51.006;7.610;2023-09-08T04:54:22;5.68;;;3.78;;
37339;SDS011;23223;51.006;7.610;2023-09-08T04:56:51;5.85;;;3.45;;
37339;SDS011;23223;51.006;7.610;2023-09-08T04:59:17;3.97;;;3.30;;
37339;SDS011;23223;51.006;7.610;2023-09-08T05:01:42;8.07;;;3.42;;
37339;SDS011;23223;51.006;7.610;2023-09-08T05:04:09;9.43;;;3.55;;
37339;SDS011;23223;51.006;7.610;2023-09-08T05:06:35;8.43;;;4.10;;
37339;SDS011;23223;51.006;7.610;2023-09-08T05:09:00;7.75;;;4.40;;
37339;SDS011;23223;51.006;7.610;2023-09-08T05:11:26;4.63;;;3.58;;
37339;SDS011;23223;51.006;7.610;2023-09-08T05:13:52;5.07;;;3.13;;
37339;SDS011;23223;51.006;7.610;2023-09-08T05:16:18;6.65;;;3.90;;
37339;SDS011;23223;51.006;7.610;2023-09-08T05:18:50;9.13;;;4.10;;
37339;SDS011;23223;51.006;7.610;2023-09-08T05:21:16;7.95;;;4.35;;
37339;SDS011;23223;51.006;7.610;2023-09-08T05:23:42;4.90;;;3.80;;
37339;SDS011;23223;51.006;7.610;2023-09-08T05:26:07;7.05;;;3.85;;
37339;SDS011;23223;51.006;7.610;2023-09-08T05:28:33;3.83;;;3.42;;
37339;SDS011;23223;51.006;7.610;2023-09-08T05:30:59;4.93;;;3.72;;
37339;SDS011;23223;51.006;7.610;2023-09-08T05:33:24;14.90;;;4.47;;
37339;SDS011;23223;51.006;7.610;2023-09-08T05:35:50;6.90;;;4.50;;
37339;SDS011;23223;51.006;7.610;2023-09-08T05:38:15;6.82;;;4.30;;
37339;SDS011;23223;51.006;7.610;2023-09-08T05:40:41;5.93;;;4.22;;
37339;SDS011;23223;51.006;7.610;2023-09-08T05:43:06;8.98;;;6.47;;
37339;SDS011;23223;51.006;7.610;2023-09-08T05:45:32;7.75;;;3.95;;
37339;SDS011;23223;51.006;7.610;2023-09-08T05:47:58;5.18;;;4.07;;
37339;SDS011;23223;51.006;7.610;2023-09-08T05:50:23;4.53;;;3.08;;
37339;SDS011;23223;51.006;7.610;2023-09-08T05:52:49;4.28;;;3.50;;
37339;SDS011;23223;51.006;7.610;2023-09-08T05:55:16;7.75;;;3.70;;
37339;SDS011;23223;51.006;7.610;2023-09-08T05:57:41;11.50;;;3.63;;
37339;SDS011;23223;51.006;7.610;2023-09-08T06:00:07;5.65;;;3.40;;
37339;SDS011;23223;51.006;7.610;2023-09-08T06:02:33;13.32;;;4.50;;
37339;SDS011;23223;51.006;7.610;2023-09-08T06:04:59;12.25;;;5.05;;
37339;SDS011;23223;51.006;7.610;2023-09-08T06:07:25;9.23;;;4.32;;
37339;SDS011;23223;51.006;7.610;2023-09-08T06:09:50;6.22;;;4.20;;
37339;SDS011;23223;51.006;7.610;2023-09-08T06:12:16;9.70;;;4.43;;
37339;SDS011;23223;51.006;7.610;2023-09-08T06:14:41;11.27;;;4.38;;
37339;SDS011;23223;51.006;7.610;2023-09-08T06:17:07;5.95;;;3.67;;
37339;SDS011;23223;51.006;7.610;2023-09-08T06:19:33;6.65;;;3.35;;
37339;SDS011;23223;51.006;7.610;2023-09-08T06:21:59;5.85;;;4.22;;
37339;SDS011;23223;51.006;7.610;2023-09-08T06:24:24;12.90;;;4.55;;
37339;SDS011;23223;51.006;7.610;2023-09-08T06:26:50;5.82;;;3.33;;
37339;SDS011;23223;51.006;7.610;2023-09-08T06:29:15;5.50;;;4.38;;
37339;SDS011;23223;51.006;7.610;2023-09-08T06:31:41;5.47;;;4.03;;
37339;SDS011;23223;51.006;7.610;2023-09-08T06:34:07;5.28;;;4.32;;
37339;SDS011;23223;51.006;7.610;2023-09-08T06:36:32;7.57;;;4.05;;
37339;SDS011;23223;51.006;7.610;2023-09-08T06:38:58;6.57;;;4.20;;
37339;SDS011;23223;51.006;7.610;2023-09-08T06:41:24;4.93;;;4.40;;
37339;SDS011;23223;51.006;7.610;2023-09-08T06:43:52;9.23;;;3.90;;
37339;SDS011;23223;51.006;7.610;2023-09-08T06:46:17;10.23;;;4.25;;
37339;SDS011;23223;51.006;7.610;2023-09-08T06:48:43;14.15;;;4.53;;
37339;SDS011;23223;51.006;7.610;2023-09-08T06:51:08;8.32;;;4.70;;
37339;SDS011;23223;51.006;7.610;2023-09-08T06:53:35;11.15;;;4.65;;
37339;SDS011;23223;51.006;7.610;2023-09-08T06:56:01;8.45;;;5.00;;
37339;SDS011;23223;51.006;7.610;2023-09-08T06:58:27;5.25;;;4.55;;
37339;SDS011;23223;51.006;7.610;2023-09-08T07:00:53;11.40;;;4.63;;
37339;SDS011;23223;51.006;7.610;2023-09-08T07:03:19;6.53;;;3.47;;
37339;SDS011;23223;51.006;7.610;2023-09-08T07:05:47;6.55;;;4.35;;
37339;SDS011;23223;51.006;7.610;2023-09-08T07:08:12;8.65;;;4.85;;
37339;SDS011;23223;51.006;7.610;2023-09-08T07:10:38;13.10;;;4.80;;
37339;SDS011;23223;51.006;7.610;2023-09-08T07:13:04;10.25;;;4.50;;
37339;SDS011;23223;51.006;7.610;2023-09-08T07:15:29;6.93;;;3.92;;
37339;SDS011;23223;51.006;7.610;2023-09-08T07:17:55;5.70;;;3.97;;
37339;SDS011;23223;51.006;7.610;2023-09-08T07:20:20;6.05;;;3.67;;
37339;SDS011;23223;51.006;7.610;2023-09-08T07:22:46;5.80;;;3.08;;
37339;SDS011;23223;51.006;7.610;2023-09-08T07:25:12;8.10;;;4.68;;
37339;SDS011;23223;51.006;7.610;2023-09-08T07:27:37;7.78;;;4.30;;
37339;SDS011;23223;51.006;7.610;2023-09-08T07:30:03;7.82;;;4.10;;
37339;SDS011;23223;51.006;7.610;2023-09-08T07:32:29;7.85;;;4.85;;
37339;SDS011;23223;51.006;7.610;2023-09-08T07:34:56;7.53;;;4.32;;
37339;SDS011;23223;51.006;7.610;2023-09-08T07:37:22;7.57;;;4.05;;
37339;SDS011;23223;51.006;7.610;2023-09-08T07:39:48;7.05;;;3.88;;
37339;SDS011;23223;51.006;7.610;2023-09-08T07:42:14;8.35;;;3.88;;
37339;SDS011;23223;51.006;7.610;2023-09-08T07:44:40;6.80;;;3.72;;
37339;SDS011;23223;51.006;7.610;2023-09-08T07:47:06;7.00;;;4.20;;
37339;SDS011;23223;51.006;7.610;2023-09-08T07:49:33;8.80;;;4.43;;
37339;SDS011;23223;51.006;7.610;2023-09-08T07:51:59;11.38;;;4.15;;
37339;SDS011;23223;51.006;7.610;2023-09-08T07:54:25;7.40;;;3.95;;
37339;SDS011;23223;51.006;7.610;2023-09-08T07:56:51;8.18;;;3.38;;
37339;SDS011;23223;51.006;7.610;2023-09-08T07:59:17;11.98;;;3.83;;
37339;SDS011;23223;51.006;7.610;2023-09-08T08:01:42;5.00;;;3.70;;
37339;SDS011;23223;51.006;7.610;2023-09-08T08:04:08;5.03;;;3.33;;
37339;SDS011;23223;51.006;7.610;2023-09-08T08:06:34;3.83;;;2.97;;
37339;SDS011;23223;51.006;7.610;2023-09-08T08:09:00;6.15;;;3.80;;
37339;SDS011;23223;51.006;7.610;2023-09-08T08:11:26;8.75;;;3.20;;
37339;SDS011;23223;51.006;7.610;2023-09-08T08:13:51;5.43;;;3.25;;
37339;SDS011;23223;51.006;7.610;2023-09-08T08:16:17;4.40;;;3.60;;
37339;SDS011;23223;51.006;7.610;2023-09-08T08:18:45;4.65;;;3.42;;
37339;SDS011;23223;51.006;7.610;2023-09-08T08:21:11;4.50;;;3.38;;
37339;SDS011;23223;51.006;7.610;2023-09-08T08:23:36;3.92;;;3.20;;
37339;SDS011;23223;51.006;7.610;2023-09-08T08:26:03;4.05;;;3.05;;
37339;SDS011;23223;51.006;7.610;2023-09-08T08:28:29;5.57;;;3.30;;
37339;SDS011;23223;51.006;7.610;2023-09-08T08:30:55;6.57;;;2.97;;
37339;SDS011;23223;51.006;7.610;2023-09-08T08:33:21;8.80;;;3.10;;
37339;SDS011;23223;51.006;7.610;2023-09-08T08:35:50;5.07;;;3.25;;
37339;SDS011;23223;51.006;7.610;2023-09-08T08:38:16;5.25;;;3.28;;
37339;SDS011;23223;51.006;7.610;2023-09-08T08:40:42;7.10;;;3.05;;
37339;SDS011;23223;51.006;7.610;2023-09-08T08:43:08;4.57;;;3.20;;
37339;SDS011;23223;51.006;7.610;2023-09-08T08:45:34;4.82;;;3.55;;
37339;SDS011;23223;51.006;7.610;2023-09-08T08:48:02;4.50;;;3.40;;
37339;SDS011;23223;51.006;7.610;2023-09-08T08:50:29;6.22;;;3.45;;
37339;SDS011;23223;51.006;7.610;2023-09-08T08:52:56;3.67;;;3.35;;
37339;SDS011;23223;51.006;7.610;2023-09-08T08:55:23;8.93;;;3.70;;
37339;SDS011;23223;51.006;7.610;2023-09-08T08:57:50;10.90;;;3.60;;
37339;SDS011;23223;51.006;7.610;2023-09-08T09:00:17;3.72;;;2.70;;
37339;SDS011;23223;51.006;7.610;2023-09-08T09:02:43;5.00;;;3.13;;
37339;SDS011;23223;51.006;7.610;2023-09-08T09:05:14;3.53;;;3.20;;
37339;SDS011;23223;51.006;7.610;2023-09-08T09:07:41;4.15;;;2.80;;
37339;SDS011;23223;51.006;7.610;2023-09-08T09:10:07;5.07;;;3.28;;
37339;SDS011;23223;51.006;7.610;2023-09-08T09:12:33;8.45;;;3.40;;
37339;SDS011;23223;51.006;7.610;2023-09-08T09:15:01;3.75;;;3.08;;
37339;SDS011;23223;51.006;7.610;2023-09-08T09:17:29;5.85;;;3.28;;
37339;SDS011;23223;51.006;7.610;2023-09-08T09:20:14;5.15;;;3.30;;
37339;SDS011;23223;51.006;7.610;2023-09-08T09:22:42;4.70;;;2.67;;
37339;SDS011;23223;51.006;7.610;2023-09-08T09:25:20;5.63;;;3.17;;
37339;SDS011;23223;51.006;7.610;2023-09-08T09:27:51;4.80;;;3.45;;
37339;SDS011;23223;51.006;7.610;2023-09-08T09:30:22;4.95;;;3.20;;
37339;SDS011;23223;51.006;7.610;2023-09-08T09:33:10;4.32;;;3.40;;
37339;SDS011;23223;51.006;7.610;2023-09-08T09:35:42;4.57;;;3.55;;
37339;SDS011;23223;51.006;7.610;2023-09-08T09:38:09;7.03;;;3.85;;
37339;SDS011;23223;51.006;7.610;2023-09-08T09:40:35;5.30;;;3.90;;
37339;SDS011;23223;51.006;7.610;2023-09-08T09:43:02;5.78;;;3.90;;
37339;SDS011;23223;51.006;7.610;2023-09-08T09:45:29;3.95;;;3.58;;
37339;SDS011;23223;51.006;7.610;2023-09-08T09:47:56;4.28;;;3.15;;
37339;SDS011;23223;51.006;7.610;2023-09-08T09:50:31;4.25;;;3.30;;
37339;SDS011;23223;51.006;7.610;2023-09-08T09:53:07;4.47;;;2.95;;
37339;SDS011;23223;51.006;7.610;2023-09-08T09:55:38;3.67;;;3.30;;
37339;SDS011;23223;51.006;7.610;2023-09-08T09:58:05;11.55;;;3.33;;
37339;SDS011;23223;51.006;7.610;2023-09-08T10:00:31;4.35;;;3.05;;
37339;SDS011;23223;51.006;7.610;2023-09-08T10:02:58;5.18;;;3.42;;
37339;SDS011;23223;51.006;7.610;2023-09-08T10:05:25;6.35;;;3.38;;
37339;SDS011;23223;51.006;7.610;2023-09-08T10:07:51;3.95;;;3.20;;
37339;SDS011;23223;51.006;7.610;2023-09-08T10:10:17;3.75;;;3.05;;
37339;SDS011;23223;51.006;7.610;2023-09-08T10:12:44;8.98;;;3.33;;
37339;SDS011;23223;51.006;7.610;2023-09-08T10:15:11;7.43;;;2.92;;
37339;SDS011;23223;51.006;7.610;2023-09-08T10:17:37;7.28;;;3.05;;
37339;SDS011;23223;51.006;7.610;2023-09-08T10:20:05;5.97;;;3.40;;
37339;SDS011;23223;51.006;7.610;2023-09-08T10:22:36;5.50;;;3.47;;
37339;SDS011;23223;51.006;7.610;2023-09-08T10:25:05;6.40;;;3.25;;
37339;SDS011;23223;51.006;7.610;2023-09-08T10:27:32;3.83;;;3.15;;
37339;SDS011;23223;51.006;7.610;2023-09-08T10:30:00;4.28;;;3.40;;
37339;SDS011;23223;51.006;7.610;2023-09-08T10:32:26;4.78;;;3.47;;
37339;SDS011;23223;51.006;7.610;2023-09-08T10:34:53;4.35;;;3.38;;
37339;SDS011;23223;51.006;7.610;2023-09-08T10:37:20;3.78;;;3.42;;
37339;SDS011;23223;51.006;7.610;2023-09-08T10:39:47;3.88;;;3.30;;
37339;SDS011;23223;51.006;7.610;2023-09-08T10:47:19;3.70;;;3.40;;
37339;SDS011;23223;51.006;7.610;2023-09-08T10:49:47;7.15;;;3.10;;
37339;SDS011;23223;51.006;7.610;2023-09-08T10:52:12;6.68;;;3.50;;
37339;SDS011;23223;51.006;7.610;2023-09-08T10:57:19;5.45;;;3.42;;
37339;SDS011;23223;51.006;7.610;2023-09-08T10:59:59;7.10;;;3.47;;
37339;SDS011;23223;51.006;7.610;2023-09-08T11:02:39;5.82;;;3.00;;
37339;SDS011;23223;51.006;7.610;2023-09-08T11:05:13;6.75;;;3.15;;
37339;SDS011;23223;51.006;7.610;2023-09-08T11:07:44;6.38;;;3.17;;
37339;SDS011;23223;51.006;7.610;2023-09-08T11:10:11;6.25;;;3.20;;
37339;SDS011;23223;51.006;7.610;2023-09-08T11:12:38;4.82;;;3.38;;
37339;SDS011;23223;51.006;7.610;2023-09-08T11:15:05;6.13;;;3.00;;
37339;SDS011;23223;51.006;7.610;2023-09-08T11:17:33;3.42;;;3.13;;
37339;SDS011;23223;51.006;7.610;2023-09-08T11:20:07;3.85;;;2.88;;
37339;SDS011;23223;51.006;7.610;2023-09-08T11:22:34;3.75;;;2.97;;
37339;SDS011;23223;51.006;7.610;2023-09-08T11:25:01;5.28;;;2.80;;
37339;SDS011;23223;51.006;7.610;2023-09-08T11:27:30;3.35;;;2.60;;
37339;SDS011;23223;51.006;7.610;2023-09-08T11:29:57;3.53;;;3.22;;
37339;SDS011;23223;51.006;7.610;2023-09-08T11:32:23;4.65;;;2.25;;
37339;SDS011;23223;51.006;7.610;2023-09-08T11:35:05;2.80;;;2.60;;
37339;SDS011;23223;51.006;7.610;2023-09-08T11:37:38;4.43;;;2.80;;
37339;SDS011;23223;51.006;7.610;2023-09-08T11:40:05;5.25;;;2.83;;
37339;SDS011;23223;51.006;7.610;2023-09-08T11:42:38;4.13;;;2.58;;
37339;SDS011;23223;51.006;7.610;2023-09-08T11:45:18;7.95;;;3.10;;
37339;SDS011;23223;51.006;7.610;2023-09-08T11:47:46;6.50;;;3.22;;
37339;SDS011;23223;51.006;7.610;2023-09-08T11:50:14;4.47;;;2.60;;
37339;SDS011;23223;51.006;7.610;2023-09-08T11:52:48;3.95;;;2.88;;
37339;SDS011;23223;51.006;7.610;2023-09-08T11:55:15;6.57;;;2.95;;
37339;SDS011;23223;51.006;7.610;2023-09-08T11:57:44;3.63;;;2.60;;
37339;SDS011;23223;51.006;7.610;2023-09-08T12:00:17;3.13;;;2.35;;
37339;SDS011;23223;51.006;7.610;2023-09-08T12:02:44;3.33;;;2.58;;
37339;SDS011;23223;51.006;7.610;2023-09-08T12:05:11;2.65;;;2.45;;
37339;SDS011;23223;51.006;7.610;2023-09-08T12:07:38;3.30;;;2.55;;
37339;SDS011;23223;51.006;7.610;2023-09-08T12:10:08;4.07;;;2.95;;
37339;SDS011;23223;51.006;7.610;2023-09-08T12:12:41;4.30;;;2.90;;
37339;SDS011;23223;51.006;7.610;2023-09-08T12:15:08;3.40;;;2.78;;
37339;SDS011;23223;51.006;7.610;2023-09-08T12:17:45;3.72;;;2.80;;
37339;SDS011;23223;51.006;7.610;2023-09-08T12:20:14;3.63;;;2.97;;
37339;SDS011;23223;51.006;7.610;2023-09-08T12:22:50;4.55;;;2.72;;
37339;SDS011;23223;51.006;7.610;2023-09-08T12:25:16;4.32;;;2.65;;
37339;SDS011;23223;51.006;7.610;2023-09-08T12:27:44;3.08;;;2.72;;
37339;SDS011;23223;51.006;7.610;2023-09-08T12:30:16;3.55;;;2.40;;
37339;SDS011;23223;51.006;7.610;2023-09-08T12:32:44;3.35;;;2.45;;
37339;SDS011;23223;51.006;7.610;2023-09-08T12:35:12;4.82;;;3.13;;
37339;SDS011;23223;51.006;7.610;2023-09-08T12:37:38;3.40;;;2.35;;
37339;SDS011;23223;51.006;7.610;2023-09-08T12:40:03;3.30;;;3.00;;
37339;SDS011;23223;51.006;7.610;2023-09-08T12:42:30;3.42;;;2.60;;
37339;SDS011;23223;51.006;7.610;2023-09-08T12:44:55;8.35;;;2.47;;
37339;SDS011;23223;51.006;7.610;2023-09-08T12:47:21;5.10;;;2.78;;
37339;SDS011;23223;51.006;7.610;2023-09-08T12:49:47;4.00;;;2.47;;
37339;SDS011;23223;51.006;7.610;2023-09-08T12:52:13;4.25;;;3.00;;
37339;SDS011;23223;51.006;7.610;2023-09-08T12:54:39;3.40;;;2.90;;
37339;SDS011;23223;51.006;7.610;2023-09-08T12:57:05;4.65;;;3.03;;
37339;SDS011;23223;51.006;7.610;2023-09-08T12:59:30;4.07;;;3.00;;
37339;SDS011;23223;51.006;7.610;2023-09-08T13:01:56;4.18;;;2.67;;
37339;SDS011;23223;51.006;7.610;2023-09-08T13:04:23;4.45;;;3.15;;
37339;SDS011;23223;51.006;7.610;2023-09-08T13:06:49;4.88;;;2.78;;
37339;SDS011;23223;51.006;7.610;2023-09-08T13:09:15;3.65;;;2.80;;
37339;SDS011;23223;51.006;7.610;2023-09-08T13:11:41;4.45;;;3.03;;
37339;SDS011;23223;51.006;7.610;2023-09-08T13:14:07;4.25;;;2.50;;
37339;SDS011;23223;51.006;7.610;2023-09-08T13:16:33;4.20;;;3.10;;
37339;SDS011;23223;51.006;7.610;2023-09-08T13:19:02;3.40;;;2.72;;
37339;SDS011;23223;51.006;7.610;2023-09-08T13:21:27;3.72;;;2.40;;
37339;SDS011;23223;51.006;7.610;2023-09-08T13:23:53;3.70;;;3.00;;
37339;SDS011;23223;51.006;7.610;2023-09-08T13:26:18;3.67;;;2.92;;
37339;SDS011;23223;51.006;7.610;2023-09-08T13:28:44;4.68;;;3.15;;
37339;SDS011;23223;51.006;7.610;2023-09-08T13:31:10;3.50;;;2.83;;
37339;SDS011;23223;51.006;7.610;2023-09-08T13:33:35;4.93;;;1.83;;
37339;SDS011;23223;51.006;7.610;2023-09-08T13:36:01;5.13;;;3.05;;
37339;SDS011;23223;51.006;7.610;2023-09-08T13:38:26;5.93;;;3.20;;
37339;SDS011;23223;51.006;7.610;2023-09-08T13:40:52;4.90;;;2.60;;
37339;SDS011;23223;51.006;7.610;2023-09-08T13:43:18;4.55;;;2.70;;
37339;SDS011;23223;51.006;7.610;2023-09-08T13:45:44;5.75;;;2.95;;
37339;SDS011;23223;51.006;7.610;2023-09-08T13:48:09;3.47;;;2.75;;
37339;SDS011;23223;51.006;7.610;2023-09-08T13:50:37;3.13;;;2.83;;
37339;SDS011;23223;51.006;7.610;2023-09-08T13:53:03;3.35;;;2.80;;
37339;SDS011;23223;51.006;7.610;2023-09-08T13:55:29;4.78;;;2.92;;
37339;SDS011;23223;51.006;7.610;2023-09-08T13:57:55;3.53;;;2.63;;
37339;SDS011;23223;51.006;7.610;2023-09-08T14:00:20;6.88;;;2.95;;
37339;SDS011;23223;51.006;7.610;2023-09-08T14:02:46;4.95;;;3.08;;
37339;SDS011;23223;51.006;7.610;2023-09-08T14:05:12;2.97;;;2.67;;
37339;SDS011;23223;51.006;7.610;2023-09-08T14:07:37;3.17;;;2.65;;
37339;SDS011;23223;51.006;7.610;2023-09-08T14:10:03;3.03;;;2.70;;
37339;SDS011;23223;51.006;7.610;2023-09-08T14:12:33;3.00;;;2.67;;
37339;SDS011;23223;51.006;7.610;2023-09-08T14:14:59;8.05;;;3.35;;
37339;SDS011;23223;51.006;7.610;2023-09-08T14:17:25;3.83;;;2.45;;
37339;SDS011;23223;51.006;7.610;2023-09-08T14:19:50;3.83;;;3.17;;
37339;SDS011;23223;51.006;7.610;2023-09-08T14:22:16;4.57;;;2.80;;
37339;SDS011;23223;51.006;7.610;2023-09-08T14:24:41;4.53;;;2.83;;
37339;SDS011;23223;51.006;7.610;2023-09-08T14:27:07;4.97;;;3.17;;
37339;SDS011;23223;51.006;7.610;2023-09-08T14:29:33;3.53;;;3.13;;
37339;SDS011;23223;51.006;7.610;2023-09-08T14:31:59;3.63;;;3.15;;
37339;SDS011;23223;51.006;7.610;2023-09-08T14:34:25;3.95;;;3.20;;
37339;SDS011;23223;51.006;7.610;2023-09-08T14:36:51;5.93;;;3.50;;
37339;SDS011;23223;51.006;7.610;2023-09-08T14:39:17;9.73;;;3.55;;
37339;SDS011;23223;51.006;7.610;2023-09-08T14:41:46;5.40;;;3.38;;
37339;SDS011;23223;51.006;7.610;2023-09-08T14:44:13;5.65;;;3.10;;
37339;SDS011;23223;51.006;7.610;2023-09-08T14:46:38;6.78;;;3.42;;
37339;SDS011;23223;51.006;7.610;2023-09-08T14:49:04;4.32;;;3.10;;
37339;SDS011;23223;51.006;7.610;2023-09-08T14:51:29;7.78;;;3.53;;
37339;SDS011;23223;51.006;7.610;2023-09-08T14:53:55;6.40;;;3.20;;
37339;SDS011;23223;51.006;7.610;2023-09-08T14:56:21;4.40;;;2.90;;